createdAt,value
2023-05-11T00:01:44.520Z,32.10
2023-05-11T00:06:37.499Z,34.30
2023-05-11T00:09:04.111Z,29.60
2023-05-11T00:11:31.029Z,32.03
2023-05-11T00:13:57.515Z,28.63
2023-05-11T00:16:24.099Z,31.47
2023-05-11T00:18:50.673Z,29.07
2023-05-11T00:21:17.193Z,29.70
2023-05-11T00:23:43.694Z,30.37
2023-05-11T00:26:10.833Z,32.80
2023-05-11T00:28:37.369Z,30.07
2023-05-11T00:31:03.881Z,30.20
2023-05-11T00:33:30.499Z,27.60
2023-05-11T00:35:57.115Z,29.53
2023-05-11T00:38:23.672Z,27.13
2023-05-11T00:40:50.999Z,34.07
2023-05-11T00:43:17.470Z,32.50
2023-05-11T00:45:47.960Z,29.60
2023-05-11T00:48:15.439Z,27.60
2023-05-11T00:50:42.175Z,28.93
2023-05-11T00:53:09.058Z,28.87
2023-05-11T00:55:35.517Z,27.90
2023-05-11T00:58:05.553Z,28.30
2023-05-11T01:00:32.178Z,29.00
2023-05-11T01:03:00.477Z,30.57
2023-05-11T01:05:41.699Z,28.23
2023-05-11T01:08:32.507Z,27.47
2023-05-11T01:11:03.791Z,29.60
2023-05-11T01:13:38.037Z,30.93
2023-05-11T01:16:12.270Z,31.37
2023-05-11T01:18:40.740Z,31.50
2023-05-11T01:21:08.579Z,31.03
2023-05-11T01:24:03.711Z,31.87
2023-05-11T01:27:04.502Z,31.30
2023-05-11T01:29:49.952Z,35.33
2023-05-11T01:32:27.727Z,30.37
2023-05-11T01:35:10.264Z,31.57
2023-05-11T01:37:38.984Z,34.27
2023-05-11T01:40:13.754Z,33.07
2023-05-11T01:42:44.476Z,34.73
2023-05-11T01:45:11.797Z,33.53
2023-05-11T01:47:40.719Z,39.20
2023-05-11T01:50:08.519Z,34.90
2023-05-11T01:52:36.570Z,40.03
2023-05-11T01:55:05.012Z,38.67
2023-05-11T01:57:32.439Z,39.80
2023-05-11T02:00:00.069Z,36.73
2023-05-11T02:02:27.500Z,38.07
2023-05-11T02:04:54.655Z,38.30
2023-05-11T02:07:21.632Z,37.10
2023-05-11T02:09:48.737Z,38.10
2023-05-11T02:12:16.692Z,43.33
2023-05-11T02:14:43.487Z,45.33
2023-05-11T02:17:10.776Z,48.03
2023-05-11T02:19:38.530Z,40.73
2023-05-11T02:22:05.727Z,44.53
2023-05-11T02:24:33.335Z,43.60
2023-05-11T02:26:59.827Z,38.73
2023-05-11T02:29:26.488Z,35.87
2023-05-11T02:31:57.228Z,39.73
2023-05-11T02:34:26.824Z,35.97
2023-05-11T02:36:56.153Z,37.23
2023-05-11T02:39:23.392Z,34.13
2023-05-11T02:41:55.957Z,40.70
2023-05-11T02:44:24.589Z,44.03
2023-05-11T02:46:52.762Z,42.90
2023-05-11T02:49:21.300Z,41.13
2023-05-11T02:51:48.837Z,48.67
2023-05-11T02:54:16.095Z,46.70
2023-05-11T02:56:42.636Z,63.23
2023-05-11T02:59:09.236Z,50.87
2023-05-11T03:01:35.797Z,57.87
2023-05-11T03:04:05.744Z,72.43
2023-05-11T03:06:33.304Z,62.63
2023-05-11T03:09:01.338Z,59.57
2023-05-11T03:11:28.019Z,48.10
2023-05-11T03:13:54.624Z,58.47
2023-05-11T03:16:21.681Z,52.17
2023-05-11T03:18:49.297Z,67.50
2023-05-11T03:21:17.911Z,56.37
2023-05-11T03:23:46.013Z,52.83
2023-05-11T03:26:13.341Z,57.63
2023-05-11T03:28:41.276Z,63.37
2023-05-11T03:31:07.887Z,73.57
2023-05-11T03:33:34.385Z,67.27
2023-05-11T03:36:01.137Z,91.93
2023-05-11T03:38:28.259Z,76.00
2023-05-11T03:40:54.937Z,56.13
2023-05-11T03:43:22.174Z,97.97
2023-05-11T03:45:51.489Z,76.40
2023-05-11T03:48:18.574Z,90.30
2023-05-11T03:50:45.371Z,60.07
2023-05-11T03:53:12.513Z,68.67
2023-05-11T03:55:39.194Z,73.77
2023-05-11T03:58:09.755Z,69.73
2023-05-11T04:00:42.669Z,70.83
2023-05-11T04:03:09.828Z,66.07
2023-05-11T04:05:36.498Z,86.70
2023-05-11T04:08:04.498Z,104.57
2023-05-11T04:10:30.995Z,84.30
2023-05-11T04:12:57.812Z,62.20
2023-05-11T04:15:24.282Z,69.83
2023-05-11T04:17:50.836Z,96.67
2023-05-11T04:20:17.710Z,71.03
2023-05-11T04:22:44.372Z,76.17
2023-05-11T04:25:11.513Z,88.17
2023-05-11T04:27:38.036Z,77.77
2023-05-11T04:30:05.421Z,73.10
2023-05-11T04:32:31.966Z,56.20
2023-05-11T04:34:58.408Z,64.13
2023-05-11T04:37:24.877Z,55.70
2023-05-11T04:39:51.343Z,71.53
2023-05-11T04:42:17.954Z,62.33
2023-05-11T04:44:44.391Z,49.80
2023-05-11T04:47:11.023Z,44.77
2023-05-11T04:49:37.534Z,56.00
2023-05-11T04:52:04.146Z,56.57
2023-05-11T04:54:31.134Z,57.17
2023-05-11T04:56:57.617Z,62.00
2023-05-11T04:59:24.134Z,46.20
2023-05-11T05:01:50.687Z,53.67
2023-05-11T05:04:17.189Z,40.20
2023-05-11T05:06:43.716Z,42.37
2023-05-11T05:09:11.187Z,44.60
2023-05-11T05:11:37.735Z,42.43
2023-05-11T05:14:04.258Z,38.97
2023-05-11T05:16:32.435Z,47.77
2023-05-11T05:19:00.549Z,50.23
2023-05-11T05:21:27.088Z,47.20
2023-05-11T05:23:53.597Z,47.37
2023-05-11T05:26:20.049Z,40.13
2023-05-11T05:28:46.518Z,35.80
2023-05-11T05:31:13.038Z,37.57
2023-05-11T05:33:39.514Z,42.40
2023-05-11T05:36:06.229Z,42.30
2023-05-11T05:38:32.800Z,43.20
2023-05-11T05:40:59.479Z,40.80
2023-05-11T05:43:25.954Z,37.63
2023-05-11T05:45:52.435Z,38.83
2023-05-11T05:48:18.916Z,43.67
2023-05-11T05:50:45.442Z,39.37
2023-05-11T05:53:11.966Z,43.77
2023-05-11T05:55:38.502Z,41.30
2023-05-11T05:58:04.982Z,44.97
2023-05-11T06:00:31.606Z,42.23
2023-05-11T06:02:58.127Z,47.33
2023-05-11T06:05:24.658Z,49.43
2023-05-11T06:08:01.882Z,50.87
2023-05-11T06:10:36.056Z,43.33
2023-05-11T06:13:02.524Z,45.00
2023-05-11T06:15:28.968Z,44.23
2023-05-11T06:17:55.600Z,46.63
2023-05-11T06:20:23.412Z,45.87
2023-05-11T06:22:49.977Z,44.63
2023-05-11T06:25:16.849Z,46.70
2023-05-11T06:27:43.325Z,48.80
2023-05-11T06:30:10.107Z,50.10
2023-05-11T06:32:36.732Z,50.43
2023-05-11T06:35:03.347Z,52.73
2023-05-11T06:37:30.332Z,51.33
2023-05-11T06:39:56.921Z,49.27
2023-05-11T06:42:23.450Z,43.07
2023-05-11T06:44:49.946Z,42.60
2023-05-11T06:47:16.689Z,39.90
2023-05-11T06:49:43.194Z,44.40
2023-05-11T06:52:10.085Z,39.53
2023-05-11T06:54:36.804Z,41.13
2023-05-11T06:57:03.736Z,37.70
2023-05-11T06:59:30.597Z,38.50
2023-05-11T07:01:57.080Z,39.90
2023-05-11T07:04:24.351Z,37.90
2023-05-11T07:06:50.960Z,40.83
2023-05-11T07:09:17.439Z,42.20
2023-05-11T07:11:43.997Z,37.73
2023-05-11T07:14:10.575Z,39.80
2023-05-11T07:16:40.226Z,40.53
2023-05-11T07:19:08.306Z,39.20
2023-05-11T07:21:35.716Z,38.83
2023-05-11T07:24:03.238Z,39.40
2023-05-11T07:26:29.932Z,38.87
2023-05-11T07:28:56.487Z,42.77
2023-05-11T07:31:22.993Z,36.73
2023-05-11T07:33:49.527Z,44.67
2023-05-11T07:36:16.000Z,39.80
2023-05-11T07:38:42.508Z,36.93
2023-05-11T07:41:10.793Z,39.13
2023-05-11T07:43:38.981Z,37.93
2023-05-11T07:46:05.719Z,34.93
2023-05-11T07:48:32.219Z,38.30
2023-05-11T07:50:58.767Z,35.97
2023-05-11T07:53:25.317Z,37.77
2023-05-11T07:55:51.775Z,37.23
2023-05-11T07:58:18.381Z,36.57
2023-05-11T08:00:44.836Z,44.93
2023-05-11T08:03:11.364Z,41.13
2023-05-11T08:05:38.059Z,42.07
2023-05-11T08:08:05.318Z,41.57
2023-05-11T08:10:32.017Z,41.07
2023-05-11T08:12:59.270Z,43.30
2023-05-11T08:15:26.374Z,42.20
2023-05-11T08:17:53.834Z,41.60
2023-05-11T08:20:20.423Z,40.00
2023-05-11T08:22:47.011Z,40.80
2023-05-11T08:25:13.852Z,42.00
2023-05-11T08:27:40.577Z,40.70
2023-05-11T08:30:10.124Z,38.50
2023-05-11T08:32:54.489Z,42.33
2023-05-11T08:35:24.845Z,42.80
2023-05-11T08:37:51.333Z,41.13
2023-05-11T08:40:19.520Z,43.67
2023-05-11T08:42:46.931Z,38.37
2023-05-11T08:45:13.510Z,37.83
2023-05-11T08:47:40.101Z,37.20
2023-05-11T08:50:06.986Z,34.73
2023-05-11T08:52:34.503Z,34.23
2023-05-11T08:55:01.121Z,34.67
2023-05-11T08:57:32.135Z,35.87
2023-05-11T09:00:00.447Z,36.17
2023-05-11T09:02:27.424Z,34.57
2023-05-11T09:04:54.765Z,36.33
2023-05-11T09:07:22.317Z,34.30
2023-05-11T09:09:48.972Z,34.33
2023-05-11T09:12:16.726Z,45.23
2023-05-11T09:14:43.358Z,33.80
2023-05-11T09:17:09.949Z,37.63
2023-05-11T09:19:36.478Z,33.53
2023-05-11T09:22:05.396Z,32.67
2023-05-11T09:24:32.435Z,33.10
2023-05-11T09:29:53.027Z,28.60
2023-05-11T09:32:19.489Z,29.03
2023-05-11T09:34:46.277Z,32.40
2023-05-11T09:37:19.396Z,31.43
2023-05-11T09:40:28.249Z,27.60
2023-05-11T09:42:32.431Z,27.80
2023-05-11T09:44:58.869Z,29.63
2023-05-11T09:47:25.388Z,26.03
2023-05-11T09:49:52.007Z,27.20
2023-05-11T09:52:21.027Z,34.73
2023-05-11T09:54:50.662Z,29.23
2023-05-11T09:57:30.688Z,28.53
2023-05-11T09:59:58.946Z,25.37
2023-05-11T10:02:30.612Z,26.60
2023-05-11T10:04:58.623Z,31.70
2023-05-11T10:07:28.713Z,28.30
2023-05-11T10:09:59.337Z,24.43
2023-05-11T10:12:27.347Z,33.23
2023-05-11T10:15:07.658Z,26.50
2023-05-11T10:17:35.106Z,25.90
2023-05-11T10:20:02.144Z,27.03
2023-05-11T10:22:29.359Z,26.97
2023-05-11T10:24:59.740Z,32.47
2023-05-11T10:27:27.083Z,29.77
2023-05-11T10:29:53.943Z,28.33
2023-05-11T10:32:22.699Z,29.33
2023-05-11T10:34:50.722Z,29.70
2023-05-11T10:37:17.652Z,31.03
2023-05-11T10:39:48.444Z,32.83
2023-05-11T10:42:42.781Z,31.03
2023-05-11T10:45:24.846Z,30.50
2023-05-11T10:48:10.100Z,33.87
2023-05-11T10:51:02.561Z,31.57
2023-05-11T10:53:35.148Z,29.83
2023-05-11T10:56:20.375Z,29.73
2023-05-11T10:59:14.756Z,29.20
2023-05-11T11:01:42.556Z,32.13
2023-05-11T11:04:13.580Z,28.43
2023-05-11T11:06:44.186Z,28.30
2023-05-11T11:09:15.564Z,30.07
2023-05-11T11:11:46.912Z,31.23
2023-05-11T11:14:15.448Z,32.03
2023-05-11T11:17:17.016Z,28.73
2023-05-11T11:19:43.766Z,35.57
2023-05-11T11:22:35.389Z,28.87
2023-05-11T11:25:06.144Z,28.43
2023-05-11T11:27:41.938Z,29.80
2023-05-11T11:30:18.660Z,29.90
2023-05-11T11:32:46.478Z,29.60
2023-05-11T11:35:47.393Z,31.57
2023-05-11T11:38:16.457Z,30.67
2023-05-11T11:40:52.713Z,33.03
2023-05-11T11:43:28.445Z,32.50
2023-05-11T11:46:02.701Z,30.77
2023-05-11T11:48:36.555Z,28.37
2023-05-11T11:51:06.722Z,33.53
2023-05-11T11:53:36.444Z,31.93
2023-05-11T11:56:15.562Z,31.20
2023-05-11T11:58:42.479Z,33.80
2023-05-11T12:01:13.589Z,30.47
2023-05-11T12:03:44.073Z,29.97
2023-05-11T12:06:12.189Z,29.27
2023-05-11T12:08:39.854Z,32.90
2023-05-11T12:11:07.049Z,30.70
2023-05-11T12:13:34.740Z,31.83
2023-05-11T12:16:10.462Z,32.80
2023-05-11T12:18:37.063Z,31.70
2023-05-11T12:21:03.719Z,34.40
2023-05-11T12:23:30.408Z,28.03
2023-05-11T12:26:04.238Z,31.10
2023-05-11T12:28:30.728Z,34.67
2023-05-11T12:30:59.136Z,29.17
2023-05-11T12:33:27.168Z,31.93
2023-05-11T12:35:54.948Z,30.97
2023-05-11T12:38:21.615Z,33.00
2023-05-11T12:40:53.116Z,28.13
2023-05-11T12:43:20.907Z,30.43
2023-05-11T12:45:47.789Z,31.17
2023-05-11T12:48:15.136Z,32.43
2023-05-11T12:50:42.749Z,32.00
2023-05-11T12:53:14.465Z,32.17
2023-05-11T12:55:41.577Z,31.87
2023-05-11T12:58:15.359Z,31.47
2023-05-11T13:00:55.690Z,27.83
2023-05-11T13:03:23.029Z,28.43
2023-05-11T13:05:49.993Z,26.53
2023-05-11T13:08:19.067Z,29.13
2023-05-11T13:10:47.748Z,25.63
2023-05-11T13:13:27.615Z,24.80
2023-05-11T13:15:54.919Z,26.90
2023-05-11T13:18:23.238Z,24.57
2023-05-11T13:21:05.126Z,25.57
2023-05-11T13:23:31.814Z,28.10
2023-05-11T13:25:58.323Z,28.10
2023-05-11T13:28:25.194Z,24.63
2023-05-11T13:30:58.059Z,28.40
2023-05-11T13:33:24.566Z,24.13
2023-05-11T13:35:51.098Z,28.70
2023-05-11T13:38:17.595Z,23.80
2023-05-11T13:40:44.035Z,26.17
2023-05-11T13:43:10.730Z,26.20
2023-05-11T13:45:40.070Z,28.20
2023-05-11T13:48:07.107Z,27.93
2023-05-11T13:50:33.597Z,26.43
2023-05-11T13:53:00.160Z,26.73
2023-05-11T13:55:28.183Z,28.17
2023-05-11T13:57:54.765Z,27.70
2023-05-11T14:00:21.453Z,27.50
2023-05-11T14:02:50.496Z,30.70
2023-05-11T14:05:17.598Z,26.50
2023-05-11T14:07:48.189Z,24.70
2023-05-11T14:10:16.276Z,24.87
2023-05-11T14:12:42.828Z,23.77
2023-05-11T14:15:10.048Z,24.20
2023-05-11T14:17:36.777Z,22.93
2023-05-11T14:20:04.230Z,24.97
2023-05-11T14:22:30.913Z,23.47
2023-05-11T14:24:57.363Z,24.23
2023-05-11T14:27:23.937Z,23.97
2023-05-11T14:29:52.176Z,23.70
2023-05-11T14:32:19.523Z,25.30
2023-05-11T14:34:46.610Z,23.50
2023-05-11T14:37:13.350Z,23.37
2023-05-11T14:39:41.170Z,26.63
2023-05-11T14:42:08.946Z,25.97
2023-05-11T14:44:35.482Z,26.33
2023-05-11T14:47:02.018Z,26.57
2023-05-11T14:49:28.853Z,27.37
2023-05-11T14:51:55.557Z,25.60
2023-05-11T14:54:22.029Z,32.13
2023-05-11T14:56:53.741Z,35.47
2023-05-11T14:59:21.314Z,27.67
2023-05-11T15:01:49.608Z,31.90
2023-05-11T15:04:16.843Z,35.57
2023-05-11T15:06:43.778Z,33.07
2023-05-11T15:09:10.291Z,32.97
2023-05-11T15:11:39.617Z,33.47
2023-05-11T15:14:07.123Z,37.17
2023-05-11T15:16:33.742Z,37.97
2023-05-11T15:19:00.575Z,49.30
2023-05-11T15:21:27.531Z,40.53
2023-05-11T15:23:54.354Z,40.97
2023-05-11T15:26:22.167Z,40.97
2023-05-11T15:28:48.978Z,45.67
2023-05-11T15:31:15.540Z,46.30
2023-05-11T15:33:42.539Z,44.10
2023-05-11T15:36:13.541Z,41.20
2023-05-11T15:38:40.542Z,40.73
2023-05-11T15:41:07.836Z,45.50
2023-05-11T15:43:34.780Z,44.97
2023-05-11T15:46:03.608Z,41.73
2023-05-11T15:48:30.383Z,42.73
2023-05-11T15:50:58.815Z,42.77
2023-05-11T15:53:25.470Z,40.30
2023-05-11T15:55:55.403Z,43.13
2023-05-11T15:58:22.241Z,44.57
2023-05-11T16:00:49.149Z,46.43
2023-05-11T16:03:15.978Z,41.50
2023-05-11T16:05:42.539Z,43.30
2023-05-11T16:08:08.970Z,49.23
2023-05-11T16:10:35.447Z,40.50
2023-05-11T16:13:01.895Z,48.67
2023-05-11T16:15:29.453Z,44.07
2023-05-11T16:17:56.041Z,47.60
2023-05-11T16:20:22.644Z,43.47
2023-05-11T16:22:49.099Z,43.80
2023-05-11T16:25:16.150Z,41.57
2023-05-11T16:27:42.629Z,43.70
2023-05-11T16:30:22.217Z,43.47
2023-05-11T16:32:51.124Z,42.63
2023-05-11T16:35:17.731Z,41.97
2023-05-11T16:37:44.197Z,41.03
2023-05-11T16:40:10.956Z,42.67
2023-05-11T16:42:37.542Z,42.83
2023-05-11T16:45:04.907Z,42.43
2023-05-11T16:47:31.528Z,40.47
2023-05-11T16:49:58.182Z,43.10
2023-05-11T16:52:24.796Z,42.63
2023-05-11T16:54:51.322Z,43.57
2023-05-11T16:57:17.804Z,39.97
2023-05-11T16:59:44.400Z,44.40
2023-05-11T17:02:11.143Z,40.87
2023-05-11T17:04:37.684Z,42.23
2023-05-11T17:07:04.327Z,39.80
2023-05-11T17:09:31.046Z,53.37
2023-05-11T17:11:57.555Z,39.57
2023-05-11T17:14:24.087Z,45.00
2023-05-11T17:16:50.955Z,39.20
2023-05-11T17:19:18.095Z,42.87
2023-05-11T17:21:44.677Z,41.27
2023-05-11T17:24:11.269Z,40.70
2023-05-11T17:26:47.947Z,42.17
2023-05-11T17:29:16.565Z,43.43
2023-05-11T17:31:43.432Z,40.60
2023-05-11T17:34:10.780Z,41.27
2023-05-11T17:36:37.589Z,41.73
2023-05-11T17:39:05.091Z,41.97
2023-05-11T17:41:31.987Z,40.70
2023-05-11T17:43:58.450Z,39.93
2023-05-11T17:46:25.303Z,41.20
2023-05-11T17:48:53.005Z,39.50
2023-05-11T17:51:20.343Z,39.17
2023-05-11T17:53:47.804Z,37.87
2023-05-11T17:56:16.072Z,39.83
2023-05-11T17:58:46.539Z,38.60
2023-05-11T18:01:16.970Z,37.37
2023-05-11T18:03:43.824Z,39.40
2023-05-11T18:06:10.636Z,40.27
2023-05-11T18:08:37.719Z,38.47
2023-05-11T18:11:05.535Z,37.87
2023-05-11T18:13:32.080Z,41.33
2023-05-11T18:16:00.345Z,38.00
2023-05-11T18:18:27.031Z,38.73
2023-05-11T18:20:54.124Z,40.50
2023-05-11T18:23:21.182Z,36.70
2023-05-11T18:25:48.464Z,67.27
2023-05-11T18:28:14.954Z,38.40
2023-05-11T18:30:41.422Z,41.70
2023-05-11T18:33:08.466Z,33.50
2023-05-11T18:35:35.184Z,35.30
2023-05-11T18:38:04.153Z,34.53
2023-05-11T18:40:30.613Z,39.60
2023-05-11T18:42:57.588Z,39.80
2023-05-11T18:45:24.103Z,31.50
2023-05-11T18:47:51.065Z,33.17
2023-05-11T18:50:17.778Z,34.23
2023-05-11T18:52:44.753Z,32.47
2023-05-11T18:55:11.300Z,32.17
2023-05-11T18:57:39.993Z,33.33
2023-05-11T19:00:07.080Z,33.90
2023-05-11T19:02:34.038Z,31.17
2023-05-11T19:05:00.559Z,33.83
2023-05-11T19:07:27.024Z,36.93
2023-05-11T19:09:53.789Z,35.83
2023-05-11T19:12:20.300Z,35.13
2023-05-11T19:14:47.521Z,34.47
2023-05-11T19:17:14.192Z,35.63
2023-05-11T19:19:40.659Z,33.03
2023-05-11T19:22:09.074Z,36.73
2023-05-11T19:24:35.923Z,41.47
2023-05-11T19:27:07.704Z,41.40
2023-05-11T19:29:35.443Z,33.53
2023-05-11T19:32:02.320Z,37.07
2023-05-11T19:34:28.993Z,39.67
2023-05-11T19:36:55.475Z,33.63
2023-05-11T19:39:21.990Z,30.67
2023-05-11T19:41:48.511Z,30.93
2023-05-11T19:44:15.155Z,33.57
2023-05-11T19:46:46.455Z,39.43
2023-05-11T19:49:15.011Z,34.50
2023-05-11T19:51:42.159Z,31.07
2023-05-11T19:54:08.648Z,39.10
2023-05-11T19:56:35.150Z,31.20
2023-05-11T19:59:02.704Z,33.20
2023-05-11T20:01:29.217Z,28.47
2023-05-11T20:03:56.292Z,30.80
2023-05-11T20:06:22.987Z,34.57
2023-05-11T20:08:51.549Z,33.00
2023-05-11T20:11:18.344Z,31.30
2023-05-11T20:13:46.835Z,34.83
2023-05-11T20:16:13.779Z,30.90
2023-05-11T20:18:40.432Z,30.13
2023-05-11T20:21:07.088Z,31.83
2023-05-11T20:23:35.185Z,29.93
2023-05-11T20:26:07.687Z,31.20
2023-05-11T20:28:34.150Z,28.93
2023-05-11T20:31:03.062Z,32.37
2023-05-11T20:36:00.954Z,34.90
2023-05-11T20:38:27.489Z,28.83
2023-05-11T20:41:00.441Z,31.30
2023-05-11T20:43:27.232Z,30.93
2023-05-11T20:45:54.370Z,26.77
2023-05-11T20:48:32.395Z,29.60
2023-05-11T20:51:05.492Z,29.63
2023-05-11T20:53:32.072Z,30.10
2023-05-11T20:55:58.808Z,27.10
2023-05-11T20:58:26.264Z,30.37
2023-05-11T21:00:53.300Z,27.10
2023-05-11T21:03:20.088Z,27.30
2023-05-11T21:05:46.742Z,28.73
2023-05-11T21:08:15.080Z,24.17
2023-05-11T21:10:42.045Z,22.83
2023-05-11T21:13:08.970Z,33.47
2023-05-11T21:15:35.978Z,25.70
2023-05-11T21:18:02.636Z,23.43
2023-05-11T21:20:29.223Z,22.93
2023-05-11T21:22:55.847Z,22.73
2023-05-11T21:25:22.320Z,23.63
2023-05-11T21:27:48.822Z,21.70
2023-05-11T21:30:15.317Z,22.83
2023-05-11T21:32:41.903Z,23.00
2023-05-11T21:35:08.972Z,23.70
2023-05-11T21:37:36.441Z,24.90
2023-05-11T21:40:03.224Z,23.70
2023-05-11T21:42:34.602Z,21.57
2023-05-11T21:45:02.052Z,22.03
2023-05-11T21:47:28.911Z,20.30
2023-05-11T21:49:55.451Z,26.17
2023-05-11T21:52:21.898Z,19.37
2023-05-11T21:54:48.416Z,23.97
2023-05-11T21:57:15.656Z,22.07
2023-05-11T21:59:42.154Z,20.90
2023-05-11T22:02:08.860Z,22.00
2023-05-11T22:04:35.614Z,23.20
2023-05-11T22:07:02.069Z,20.97
2023-05-11T22:09:28.573Z,21.90
2023-05-11T22:11:55.037Z,20.53
2023-05-11T22:14:24.135Z,22.10
2023-05-11T22:16:50.645Z,20.27
2023-05-11T22:19:17.184Z,19.10
2023-05-11T22:21:43.661Z,21.60
2023-05-11T22:24:10.621Z,20.20
2023-05-11T22:26:37.060Z,21.03
2023-05-11T22:29:04.075Z,18.33
2023-05-11T22:31:30.558Z,19.43
2023-05-11T22:33:58.346Z,19.97
2023-05-11T22:36:24.863Z,19.43
2023-05-11T22:38:51.384Z,20.17
2023-05-11T22:41:17.856Z,18.57
2023-05-11T22:43:44.381Z,19.33
2023-05-11T22:46:10.985Z,18.97
2023-05-11T22:48:37.534Z,21.30
2023-05-11T22:51:06.236Z,18.50
2023-05-11T22:53:32.820Z,18.23
2023-05-11T22:56:09.269Z,18.10
2023-05-11T22:58:35.797Z,18.63
2023-05-11T23:01:02.311Z,20.67
2023-05-11T23:03:29.027Z,17.80
2023-05-11T23:05:55.622Z,18.50
2023-05-11T23:08:22.978Z,16.83
2023-05-11T23:10:50.470Z,20.17
2023-05-11T23:13:17.631Z,17.63
2023-05-11T23:15:44.120Z,17.83
2023-05-11T23:18:10.719Z,20.33
2023-05-11T23:20:37.286Z,18.80
2023-05-11T23:23:03.862Z,19.07
2023-05-11T23:25:30.541Z,18.97
2023-05-11T23:27:56.993Z,19.47
2023-05-11T23:30:23.661Z,21.03
2023-05-11T23:32:50.202Z,18.40
2023-05-11T23:35:16.653Z,19.83
2023-05-11T23:37:43.130Z,17.30
2023-05-11T23:40:10.089Z,19.03
2023-05-11T23:42:36.874Z,16.93
2023-05-11T23:45:04.334Z,18.37
2023-05-11T23:47:34.033Z,19.40
2023-05-11T23:50:00.826Z,15.80
2023-05-11T23:52:27.289Z,18.97
2023-05-11T23:54:53.836Z,16.57
2023-05-11T23:57:20.334Z,20.23
2023-05-11T23:59:46.917Z,20.47
